Latest Weather Observations for Hamilton

IDV60801

Issued at 8:22 am EST Saturday 24 August 2019 (issued every 10 minutes, with the page automatically refreshed every 10 minutes)

About weather observations | Map of weather stations | Latest weather observations for VIC | Other Formats
Station Details ID: 090173 Name: HAMILTON AIRPORT Lat: -37.65 Lon: 142.06 Height: 241.1 m
Data from the previous 72 hours. | See also: Recent months at Hamilton
Date/Time
EST
Temp
°C
App
Temp
°C
Dew
Point
°C
Rel
Hum
%
Delta-T
°C
Wind Press
QNH
hPa
Press
MSL
hPa
Rain since
9am
mm
Dir  Spd
km/h
Gust
km/h
Spd
kts
Gust
kts
24/08:00am 7.2 1.2 3.3 76 1.7 N 24 32 13 17 1013.4 1013.7 0.0
24/07:30am 6.5 0.4 2.9 78 1.5 N 24 32 13 17 1013.6 1013.9 0.0
24/07:00am 6.3 -0.2 2.9 79 1.4 N 26 32 14 17 1013.7 1014.0 0.0
24/06:30am 6.7 -0.1 3.1 78 1.5 N 28 33 15 18 1013.6 1013.9 0.0
24/06:00am 6.8 0.0 3.2 78 1.5 N 28 33 15 18 1013.4 1013.7 0.0
24/05:30am 6.7 0.3 3.3 79 1.5 N 26 33 14 18 1013.6 1013.9 0.0
24/05:00am 6.9 0.6 3.5 79 1.5 N 26 35 14 19 1013.8 1014.1 0.0
24/04:30am 7.1 1.2 3.7 79 1.5 N 24 32 13 17 1014.0 1014.3 0.0
24/04:00am 7.1 1.2 3.9 80 1.4 N 24 30 13 16 1014.3 1014.7 0.0
24/03:30am 6.9 1.4 4.2 83 1.2 N 22 28 12 15 1014.7 1015.1 0.0
24/03:00am 7.4 2.4 4.5 82 1.3 N 20 28 11 15 1015.5 1015.8 0.0
24/02:30am 7.6 1.8 4.6 81 1.3 NNW 24 30 13 16 1015.9 1016.2 0.0
24/02:00am 7.4 2.4 4.7 83 1.2 NNW 20 26 11 14 1016.1 1016.4 0.0
24/01:30am 7.4 2.5 5.0 85 1.1 NNW 20 26 11 14 1016.4 1016.7 0.0
24/01:00am 7.7 2.1 5.2 84 1.1 N 24 30 13 16 1016.4 1016.7 0.0
24/12:30am 7.7 2.1 5.5 86 1.0 N 24 30 13 16 1016.6 1016.9 0.0
24/12:00am 7.3 2.7 5.6 89 0.8 N 19 22 10 12 1017.3 1017.6 0.0
 
Date/Time
EST
Temp
°C
App
Temp
°C
Dew
Point
°C
Rel
Hum
%
Delta-T
°C
Wind Press
QNH
hPa
Press
MSL
hPa
Rain since
9am
mm
Dir  Spd
km/h
Gust
km/h
Spd
kts
Gust
kts
23/11:30pm 7.3 3.1 5.6 89 0.8 N 17 20 9 11 1017.6 1017.9 0.0
23/11:00pm 7.2 2.6 5.5 89 0.8 NNW 19 20 10 11 1017.8 1018.2 0.0
23/10:30pm 7.5 3.6 5.5 87 0.9 NNW 15 19 8 10 1018.0 1018.4 0.0
23/10:00pm 8.6 4.1 5.9 83 1.2 NNW 19 22 10 12 1018.1 1018.5 0.0
23/09:30pm 8.7 4.0 6.0 83 1.2 N 20 24 11 13 1018.1 1018.5 0.0
23/09:00pm 8.8 4.1 6.1 83 1.3 N 20 26 11 14 1018.4 1018.8 0.0
23/08:30pm 8.9 4.4 6.0 82 1.3 N 19 24 10 13 1018.7 1019.1 0.0
23/08:00pm 8.1 4.7 5.7 85 1.1 N 13 17 7 9 1019.0 1019.4 0.0
23/07:30pm 9.6 5.5 6.1 79 1.6 NNW 17 20 9 11 1019.1 1019.5 0.0
23/07:00pm 10.1 5.5 6.3 77 1.8 NNW 20 24 11 13 1019.1 1019.5 0.0
23/06:30pm 10.8 5.8 6.6 75 2.0 NNW 22 28 12 15 1019.2 1019.6 0.0
23/06:00pm 11.0 6.4 6.7 75 2.1 N 20 24 11 13 1019.1 1019.5 0.0
23/05:30pm 12.2 6.9 6.9 70 2.6 NNW 24 28 13 15 1019.1 1019.5 0.0
23/05:00pm 13.0 6.6 6.8 66 3.0 NNW 30 39 16 21 1019.0 1019.4 0.0
23/04:30pm 13.3 6.9 6.9 65 3.1 NNW 30 39 16 21 1019.0 1019.4 0.0
23/04:00pm 13.4 6.3 6.5 63 3.3 NNW 33 44 18 24 1018.8 1019.2 0.0
23/03:30pm 13.5 5.7 6.6 63 3.4 NNW 37 48 20 26 1018.9 1019.3 0.0
23/03:00pm 13.3 5.1 6.6 64 3.2 N 39 48 21 26 1019.0 1019.4 0.0
23/02:30pm 12.8 5.0 6.8 67 2.9 N 37 46 20 25 1019.2 1019.6 0.0
23/02:00pm 12.8 5.1 7.0 68 2.8 NNW 37 48 20 26 1020.0 1020.3 0.0
23/01:30pm 12.7 5.4 7.2 69 2.7 NNW 35 48 19 26 1020.7 1021.0 0.0
23/01:00pm 12.2 5.4 6.7 69 2.6 NNW 32 44 17 24 1021.5 1021.9 0.0
23/12:30pm 11.5 3.2 6.0 69 2.6 NNW 39 50 21 27 1022.0 1022.4 0.0
23/12:00pm 11.4 3.4 5.7 68 2.7 NNW 37 46 20 25 1022.7 1023.1 0.0
23/11:30am 11.3 3.8 6.2 71 2.4 NNW 35 43 19 23 1023.0 1023.4 0.0
23/11:00am 11.3 5.2 6.4 72 2.3 NNW 28 39 15 21 1023.6 1024.0 0.0
23/10:30am 10.8 4.7 6.7 76 2.0 NNW 28 39 15 21 1023.7 1024.1 0.0
23/10:00am 9.6 3.6 5.2 74 2.0 NNW 26 33 14 18 1024.1 1024.4 0.0
23/09:30am 9.6 3.9 5.0 73 2.1 NNW 24 30 13 16 1024.6 1024.9 0.0
23/09:00am 9.4 5.1 5.2 75 1.9 NNW 17 20 9 11 1025.0 1025.4 0.0
23/08:30am 8.7 4.7 5.1 78 1.6 NW 15 22 8 12 1025.2 1025.6 0.0
23/08:00am 8.3 3.9 4.7 78 1.6 NW 17 22 9 12 1025.1 1025.5 0.0
23/07:30am 8.1 4.9 5.0 81 1.4 NW 11 15 6 8 1025.1 1025.5 0.0
23/07:00am 8.1 4.4 4.7 79 1.5 NW 13 15 7 8 1025.0 1025.4 0.0
23/06:30am 8.2 3.8 4.8 79 1.5 NW 17 22 9 12 1024.9 1025.3 0.0
23/06:00am 8.0 4.5 5.5 84 1.1 NW 13 19 7 10 1024.8 1025.2 0.0
23/05:30am 7.8 4.5 6.3 90 0.7 NW 13 17 7 9 1024.8 1025.2 0.0
23/05:00am 7.9 5.5 6.8 93 0.5 NW 9 13 5 7 1024.8 1025.2 0.0
23/04:30am 7.8 5.7 6.7 93 0.5 NW 7 9 4 5 1025.1 1025.5 0.0
23/04:00am 7.8 5.2 6.3 90 0.7 WNW 9 13 5 7 1025.3 1025.7 0.0
23/03:30am 7.9 4.8 7.1 95 0.4 NW 13 19 7 10 1025.5 1025.9 0.0
23/03:00am 8.2 5.8 6.8 91 0.7 NW 9 11 5 6 1025.6 1026.0 0.0
23/02:30am 8.3 6.2 6.6 89 0.8 WNW 7 9 4 5 1025.9 1026.3 0.0
23/02:00am 8.5 5.9 6.3 86 1.0 NNW 9 9 5 5 1026.1 1026.5 0.0
23/01:30am 8.8 6.7 5.7 81 1.4 W 6 11 3 6 1026.2 1026.6 0.0
23/01:00am 8.8 6.7 5.7 81 1.4 WNW 6 6 3 3 1026.4 1026.8 0.0
23/12:30am 8.8 6.5 5.5 80 1.5 WNW 7 11 4 6 1026.5 1026.9 0.0
23/12:00am 8.9 6.7 5.3 78 1.6 SW 6 7 3 4 1026.6 1027.0 0.0
 
Date/Time
EST
Temp
°C
App
Temp
°C
Dew
Point
°C
Rel
Hum
%
Delta-T
°C
Wind Press
QNH
hPa
Press
MSL
hPa
Rain since
9am
mm
Dir  Spd
km/h
Gust
km/h
Spd
kts
Gust
kts
22/11:30pm 8.9 6.6 5.6 80 1.5 SW 7 9 4 5 1026.8 1027.2 0.0
22/11:00pm 8.8 6.4 5.2 78 1.6 WSW 7 11 4 6 1027.0 1027.4 0.0
22/10:30pm 8.7 6.5 5.4 80 1.5 S 6 7 3 4 1027.1 1027.5 0.0
22/10:00pm 8.8 6.0 5.0 77 1.7 SSE 9 13 5 7 1027.3 1027.7 0.0
22/09:30pm 8.9 6.5 5.1 77 1.7 S 7 9 4 5 1027.2 1027.6 0.0
22/09:00pm 9.2 6.0 5.0 75 1.9 SSW 11 17 6 9 1027.2 1027.6 0.0
22/08:30pm 8.9 6.2 5.5 79 1.6 S 9 15 5 8 1027.2 1027.6 0.0
22/08:00pm 8.7 6.3 5.4 80 1.5 S 7 9 4 5 1027.0 1027.4 0.0
22/07:30pm 8.7 5.6 5.4 80 1.5 SSE 11 13 6 7 1027.0 1027.4 0.0
22/07:00pm 8.6 5.5 5.4 80 1.4 SSE 11 13 6 7 1027.0 1027.4 0.0
22/06:30pm 9.2 6.1 5.4 77 1.7 SSE 11 13 6 7 1026.8 1027.2 0.0
22/06:00pm 9.5 5.6 5.3 75 1.9 S 15 19 8 10 1026.7 1027.1 0.0
22/05:30pm 10.3 6.1 5.5 72 2.2 S 17 24 9 13 1026.5 1026.9 0.0
22/05:00pm 10.8 6.5 5.1 68 2.6 SSW 17 19 9 10 1026.4 1026.8 0.0
22/04:30pm 11.1 6.4 5.2 67 2.7 S 19 24 10 13 1026.3 1026.7 0.0
22/04:00pm 11.5 6.7 5.4 66 2.8 S 20 26 11 14 1026.1 1026.5 0.0
22/03:30pm 11.5 7.6 5.4 66 2.9 SSW 15 24 8 13 1026.0 1026.4 0.0
22/03:00pm 12.0 7.2 5.4 64 3.1 S 20 32 11 17 1025.8 1026.2 0.0
22/02:30pm 12.0 6.9 5.9 66 2.9 S 22 32 12 17 1025.7 1026.1 0.0
22/02:00pm 12.2 7.1 6.0 66 2.9 S 22 32 12 17 1025.6 1026.0 0.0
22/01:30pm 12.2 6.9 4.9 61 3.4 S 22 30 12 16 1025.6 1026.0 0.0
22/01:00pm 12.0 6.1 5.6 65 3.0 S 26 35 14 19 1025.8 1026.2 0.0
22/12:30pm 12.6 6.8 6.2 65 3.1 SSW 26 39 14 21 1025.9 1026.3 0.0
22/12:00pm 11.6 6.5 5.9 68 2.7 SSW 22 35 12 19 1026.1 1026.5 0.0
22/11:30am 11.7 5.9 6.4 70 2.5 SSW 26 32 14 17 1026.1 1026.5 0.0
22/11:00am 11.2 5.9 6.7 74 2.1 SSW 24 33 13 18 1026.1 1026.5 0.0
22/10:30am 10.6 5.4 7.3 80 1.6 S 24 32 13 17 1026.0 1026.4 0.0
22/10:12am 10.2 5.0 7.4 83 1.4 SSW 24 32 13 17 1025.8 1026.2 0.0
22/10:00am 10.1 6.0 8.0 87 1.0 SSW 19 30 10 16 1025.7 1026.1 0.0
22/09:39am 9.7 3.8 7.6 87 1.0 SSW 28 35 15 19 1025.5 1025.9 0.0
22/09:30am 9.7 4.2 7.6 87 1.0 SW 26 33 14 18 1025.3 1025.7 0.0
22/09:00am 9.4 3.8 7.3 87 1.0 SSW 26 35 14 19 1024.9 1025.3 5.0
22/08:30am 9.2 4.2 8.0 92 0.6 SSW 24 33 13 18 1024.5 1024.8 5.0
22/08:00am 9.0 3.6 8.1 94 0.4 SSW 26 39 14 21 1023.7 1024.1 5.0
22/07:51am 9.0 3.2 7.9 93 0.5 SSW 28 41 15 22 1023.6 1024.0 5.0
22/07:32am 8.6 3.6 8.2 97 0.2 SW 24 32 13 17 1023.4 1023.8 5.0
22/07:30am 8.6 3.7 8.3 98 0.1 SW 24 32 13 17 1023.4 1023.8 5.0
22/07:00am 8.7 3.8 8.4 98 0.1 SW 24 35 13 19 1023.1 1023.5 5.0
22/06:30am 8.8 3.1 8.5 98 0.1 SW 28 37 15 20 1022.7 1023.1 5.0
22/06:00am 9.0 3.0 8.7 98 0.1 SW 30 37 16 20 1022.6 1023.0 5.0
22/05:30am 9.0 2.7 8.9 99 0.0 SW 32 41 17 22 1022.4 1022.8 5.0
22/05:20am 9.0 2.7 8.9 99 0.0 SW 32 43 17 23 1022.3 1022.7 5.0
22/05:00am 9.0 2.1 8.9 99 0.0 SW 35 48 19 26 1022.2 1022.6 4.8
22/04:30am 9.0 3.1 8.9 99 0.0 SW 30 41 16 22 1022.0 1022.4 3.8
22/04:00am 9.1 3.9 9.0 99 0.0 SW 26 37 14 20 1022.0 1022.4 2.6
22/03:30am 9.1 2.6 9.0 99 0.0 WSW 33 50 18 27 1022.2 1022.6 2.0
22/03:24am 9.1 2.8 8.8 98 0.1 WSW 32 50 17 27 1022.0 1022.4 2.0
22/03:18am 9.1 3.5 8.8 98 0.1 WSW 28 39 15 21 1022.0 1022.4 2.0
22/03:00am 9.0 3.4 8.9 99 0.0 WSW 28 35 15 19 1022.0 1022.4 2.0
22/02:55am 9.0 3.4 8.9 99 0.0 WSW 28 37 15 20 1022.0 1022.4 2.0
22/02:30am 9.1 3.9 8.8 98 0.1 SW 26 33 14 18 1022.3 1022.7 1.8
22/02:24am 9.2 3.6 8.7 97 0.2 WSW 28 37 15 20 1022.3 1022.7 1.8
22/02:17am 9.3 2.9 8.7 96 0.3 WSW 32 50 17 27 1022.3 1022.7 1.8
22/02:15am 9.3 2.7 8.5 95 0.4 WSW 33 50 18 27 1022.3 1022.7 1.8
22/02:00am 9.2 2.6 8.7 97 0.2 SW 33 43 18 23 1022.4 1022.8 1.6
22/01:56am 9.3 1.9 8.5 95 0.4 SW 37 52 20 28 1022.4 1022.8 1.6
22/01:42am 9.4 1.5 8.0 91 0.7 SW 39 61 21 33 1022.1 1022.5 1.4
22/01:40am 9.5 2.5 8.6 94 0.4 SW 35 48 19 26 1022.3 1022.7 1.4
22/01:30am 9.8 2.3 8.1 89 0.8 WSW 37 52 20 28 1022.1 1022.5 1.4
22/01:18am 9.8 2.3 7.9 88 0.9 WSW 37 48 20 26 1022.0 1022.4 1.4
22/01:00am 10.1 1.9 8.2 88 0.9 WSW 41 56 22 30 1021.7 1022.1 1.4
22/12:46am 9.9 4.0 9.1 95 0.4 WSW 30 52 16 28 1021.8 1022.2 1.2
22/12:38am 10.0 3.6 9.4 96 0.3 WSW 33 44 18 24 1022.0 1022.4 1.2
22/12:30am 10.1 3.3 9.3 95 0.4 WSW 35 48 19 26 1022.0 1022.4 1.2
22/12:26am 10.0 3.6 9.4 96 0.3 WSW 33 48 18 26 1021.9 1022.3 1.2
22/12:22am 10.0 3.8 9.5 97 0.3 WSW 32 46 17 25 1021.8 1022.2 1.2
22/12:21am 10.0 4.2 9.5 97 0.3 WSW 30 46 16 25 1021.9 1022.3 1.2
22/12:16am 9.9 3.7 9.4 97 0.3 WSW 32 41 17 22 1021.8 1022.2 1.2
22/12:00am 10.0 3.3 9.5 97 0.3 WSW 35 54 19 29 1021.7 1022.1 1.2
 
Date/Time
EST
Temp
°C
App
Temp
°C
Dew
Point
°C
Rel
Hum
%
Delta-T
°C
Wind Press
QNH
hPa
Press
MSL
hPa
Rain since
9am
mm
Dir  Spd
km/h
Gust
km/h
Spd
kts
Gust
kts
21/11:30pm 10.1 3.4 9.5 96 0.3 WSW 35 56 19 30 1021.3 1021.7 0.6
21/11:29pm 10.1 3.4 9.5 96 0.3 WSW 35 56 19 30 1021.3 1021.7 0.6
21/11:25pm 10.2 3.8 9.4 95 0.4 WSW 33 46 18 25 1021.3 1021.7 0.6
21/11:00pm 10.2 3.8 9.4 95 0.4 W 33 44 18 24 1021.1 1021.4 0.6
21/10:39pm 10.2 3.9 9.6 96 0.3 WSW 33 41 18 22 1021.4 1021.8 0.6
21/10:30pm 10.1 4.3 9.6 97 0.3 W 30 41 16 22 1021.5 1021.9 0.4
21/10:18pm 10.3 4.1 9.4 94 0.5 W 32 41 17 22 1021.5 1021.9 0.4
21/10:00pm 10.4 4.5 9.0 91 0.7 W 30 41 16 22 1021.6 1022.0 0.2
21/09:53pm 10.4 4.1 9.0 91 0.7 W 32 44 17 24 1021.6 1022.0 0.2
21/09:30pm 10.4 4.4 8.7 89 0.8 W 30 39 16 21 1021.7 1022.1 0.2
21/09:00pm 10.2 3.9 8.8 91 0.7 W 32 43 17 23 1021.7 1022.1 0.2
21/08:30pm 10.5 4.0 8.3 86 1.1 W 32 43 17 23 1021.7 1022.1 0.2
21/08:00pm 10.5 4.8 8.3 86 1.1 W 28 39 15 21 1021.4 1021.8 0.2
21/07:41pm 10.5 4.8 8.4 87 1.0 W 28 41 15 22 1021.7 1022.1 0.2
21/07:30pm 10.6 4.9 8.5 87 1.0 W 28 41 15 22 1021.9 1022.3 0.2
21/07:00pm 10.4 5.6 9.0 91 0.7 W 24 37 13 20 1021.6 1022.0 0.2
21/06:30pm 10.5 5.4 9.3 92 0.6 W 26 37 14 20 1021.7 1022.1 0.2
21/06:00pm 10.8 6.1 9.2 90 0.8 W 24 39 13 21 1021.5 1021.9 0.2
21/05:55pm 10.9 5.8 9.2 89 0.9 W 26 37 14 20 1021.5 1021.9 0.2
21/05:30pm 11.3 4.9 8.5 83 1.4 W 32 44 17 24 1021.4 1021.8 0.2
21/05:09pm 11.3 6.0 8.5 83 1.4 W 26 37 14 20 1021.1 1021.4 0.2
21/05:00pm 11.3 6.1 8.7 84 1.3 W 26 35 14 19 1021.0 1021.3 0.2
21/04:55pm 11.6 5.6 8.6 82 1.5 W 30 43 16 23 1021.0 1021.3 0.2
21/04:30pm 11.9 6.2 8.2 78 1.8 W 28 41 15 22 1021.0 1021.3 0.2
21/04:00pm 12.4 5.8 7.7 73 2.3 WSW 32 48 17 26 1021.5 1021.9 0.2
21/03:30pm 12.7 7.0 8.2 74 2.3 WSW 28 43 15 23 1021.6 1022.0 0.2
21/03:16pm 12.7 6.4 7.4 70 2.6 WSW 30 48 16 26 1021.7 1022.1 0.2
21/03:00pm 12.8 6.0 7.5 70 2.6 WSW 33 44 18 24 1021.8 1022.2 0.2
21/02:30pm 12.5 5.7 7.8 73 2.3 WSW 33 43 18 23 1021.7 1022.1 0.2
21/02:00pm 12.5 5.3 7.6 72 2.4 WSW 35 46 19 25 1021.3 1021.7 0.2
21/01:41pm 13.5 6.5 6.8 64 3.3 WSW 33 54 18 29 1021.5 1021.9 0.2
21/01:30pm 13.5 6.7 7.9 69 2.8 WSW 33 48 18 26 1021.7 1022.1 0.2
21/01:00pm 12.9 5.9 8.4 74 2.3 WSW 35 46 19 25 1021.8 1022.2 0.2
21/12:30pm 12.9 7.0 9.2 78 1.9 WSW 30 44 16 24 1022.1 1022.5 0.2
21/12:00pm 12.0 5.6 9.2 83 1.4 WSW 33 43 18 23 1022.6 1023.0 0.2
21/11:30am 12.1 5.8 8.8 80 1.7 WSW 32 43 17 23 1022.8 1023.2 0.0
21/11:01am 11.9 5.9 8.6 80 1.7 WSW 30 43 16 23 1023.1 1023.5 0.0
21/11:00am 12.0 6.3 8.5 79 1.7 WSW 28 43 15 23 1023.1 1023.5 0.0
21/10:30am 10.9 5.4 9.2 89 0.9 WSW 28 37 15 20 1022.6 1023.0 0.0
21/10:01am 10.7 4.5 9.5 92 0.6 WSW 32 43 17 23 1022.1 1022.5 0.0
21/10:00am 10.7 5.0 9.9 95 0.4 WSW 30 41 16 22 1022.2 1022.6 0.0
21/09:30am 10.2 4.4 9.4 95 0.4 WSW 30 39 16 21 1022.7 1023.1 0.0
21/09:28am 10.2 4.4 9.3 94 0.5 WSW 30 39 16 21 1022.6 1023.0 0.0
21/09:00am 10.1 3.3 9.3 95 0.4 WSW 35 48 19 26 1022.7 1023.1 2.0
21/08:50am 9.9 3.6 9.6 98 0.2 WSW 33 44 18 24 1022.6 1023.0 -
21/08:31am 9.9 4.6 9.8 99 0.1 WSW 28 35 15 19 1022.4 1022.8 -
21/08:30am 9.9 4.6 9.8 99 0.1 WSW 28 35 15 19 1022.4 1022.8 -

Other formats

Comma delimited format used in spreadsheet applications
http://www.bom.gov.au/fwo/IDV60801/IDV60801.94829.axf

JavaScript Object Notation format (JSON) in row-major order
http://www.bom.gov.au/fwo/IDV60801/IDV60801.94829.json

Data quality

Most of these data are generated automatically and are frequently updated. Quality checks on data are not normally performed. It is possible for incorrect values to appear. Refer to information at About Latest Weather Observations and please check the disclaimer before using these data.